Time;durP1;ratioP1;P1;durP2;ratioP2;P2;SDS_P1;SDS_P2;PMS_P1;PMS_P2;Temp;Humidity;BMP_temperature;BMP_pressure;BME280_temperature;BME280_humidity;BME280_pressure;Samples;Min_cycle;Max_cycle;Signal;HPM_P1;HPM_P2
2022/11/18 00:01:20;;;;;;;6.72;1.95;;;8.30;99.90;;;-144.05;79.03;125687.94;5016801;28;20037;-81
2022/11/18 00:03:47;;;;;;;8.32;1.73;;;8.30;99.90;;;-144.05;79.50;125687.94;5017014;28;20041;-81
2022/11/18 00:06:22;;;;;;;7.68;1.88;;;8.30;99.90;;;-144.05;78.55;125687.94;5017554;28;20033;-80
2022/11/18 00:08:48;;;;;;;7.55;2.10;;;8.30;99.90;;;-144.05;78.68;125687.94;5017776;28;20037;-81
2022/11/18 00:14:22;;;;;;;6.10;1.35;;;8.30;99.90;;;-144.05;77.96;125687.94;5017546;28;20068;-81
2022/11/18 00:16:58;;;;;;;3.75;1.70;;;8.30;99.90;;;-144.05;78.57;125687.94;5018135;28;20612;-80
2022/11/18 00:19:30;;;;;;;8.25;2.55;;;8.40;99.90;;;-144.05;78.68;125687.94;5000283;28;20030;-81
2022/11/18 00:21:56;;;;;;;6.10;1.88;;;8.40;99.90;;;-144.05;78.82;125687.94;5018187;28;20059;-81
2022/11/18 00:24:23;;;;;;;6.43;1.67;;;8.40;99.90;;;-144.05;78.67;125687.94;5017153;28;20038;-81
2022/11/18 00:26:50;;;;;;;6.13;2.03;;;8.40;99.90;;;-144.05;78.43;125687.94;5017013;28;20034;-80
2022/11/18 00:29:17;;;;;;;5.57;1.65;;;8.40;99.90;;;-144.05;78.47;125687.94;5028095;28;20026;-77
2022/11/18 00:31:43;;;;;;;8.13;2.15;;;8.50;99.90;;;-144.05;78.24;125687.94;5034158;28;20034;-79
2022/11/18 00:34:14;;;;;;;6.30;1.70;;;8.40;99.90;;;-144.05;78.37;125687.94;5035126;28;20032;-79
2022/11/18 00:36:43;;;;;;;8.13;2.40;;;8.40;99.90;;;-144.05;77.89;125687.94;5035358;28;20033;-78
2022/11/18 00:39:16;;;;;;;5.05;1.88;;;8.40;99.90;;;-144.05;78.18;125687.94;5035001;28;20029;-78
2022/11/18 00:44:26;;;;;;;7.03;2.00;;;8.40;99.90;;;-144.05;77.96;125687.94;5021084;28;20104;-77
2022/11/18 00:46:53;;;;;;;4.82;1.70;;;8.50;99.90;;;-144.05;77.81;125687.94;5025797;28;20030;-80
2022/11/18 00:49:19;;;;;;;8.95;2.40;;;8.50;99.90;;;-144.05;78.19;125687.94;5024106;28;20036;-80
2022/11/18 00:51:44;;;;;;;5.13;2.60;;;8.50;99.90;;;-144.05;77.98;125687.94;5018859;28;20030;-80
2022/11/18 00:54:11;;;;;;;3.38;1.70;;;8.50;99.90;;;-144.05;78.06;125687.94;5016404;28;20048;-83
2022/11/18 00:56:37;;;;;;;3.88;1.60;;;8.50;99.90;;;-144.05;77.84;125687.94;5016005;28;20076;-81
2022/11/18 00:59:03;;;;;;;4.50;1.90;;;8.50;99.90;;;-144.05;77.64;125687.94;5015873;28;20078;-79
2022/11/18 01:01:29;;;;;;;5.82;2.25;;;8.50;99.90;;;-144.05;77.75;125687.94;5016024;28;20201;-80
2022/11/18 01:03:54;;;;;;;9.55;1.70;;;8.50;99.90;;;-144.05;78.24;125687.94;5016208;28;20551;-81
2022/11/18 01:06:20;;;;;;;6.47;1.80;;;8.50;99.90;;;-144.05;78.34;125687.94;5015579;28;20026;-81
2022/11/18 01:08:46;;;;;;;9.55;1.92;;;8.50;99.90;;;-144.05;78.58;125687.94;5015202;28;20026;-81
2022/11/18 01:13:57;;;;;;;6.50;1.98;;;8.40;99.90;;;-144.05;78.31;125687.94;5015813;28;20049;-79
2022/11/18 01:16:26;;;;;;;6.15;1.70;;;8.40;99.90;;;-144.05;78.02;125687.94;4998504;28;20112;-79
2022/11/18 01:18:53;;;;;;;6.35;1.73;;;8.40;99.90;;;-144.05;78.50;125687.94;5014944;28;20091;-80
2022/11/18 01:21:20;;;;;;;6.10;2.15;;;8.40;99.90;;;-144.05;78.23;125687.94;5014672;28;20444;-80
2022/11/18 01:23:46;;;;;;;5.97;1.83;;;8.50;99.90;;;-144.05;78.03;125687.94;5013808;28;20111;-80
2022/11/18 01:26:16;;;;;;;5.70;2.08;;;8.50;99.90;;;-144.05;78.30;125687.94;5013849;28;20026;-80
2022/11/18 01:28:43;;;;;;;3.80;1.73;;;8.60;99.90;;;-144.05;78.25;125687.94;5014603;28;20038;-80
2022/11/18 01:31:18;;;;;;;6.45;2.10;;;8.60;99.90;;;-144.05;78.32;125687.94;5014719;28;20033;-81
2022/11/18 01:33:45;;;;;;;4.30;1.45;;;8.70;99.90;;;-144.05;78.52;125687.94;5014925;28;20086;-80
2022/11/18 01:36:24;;;;;;;3.78;1.42;;;8.60;99.90;;;-144.05;78.23;125687.94;4997155;28;20057;-80
2022/11/18 01:38:52;;;;;;;10.80;2.00;;;8.70;99.90;;;-144.05;77.69;125687.94;4997002;28;20036;-78
2022/11/18 01:41:24;;;;;;;5.85;1.73;;;8.70;99.90;;;-144.05;77.34;125687.94;5014445;28;20279;-80
2022/11/18 01:43:59;;;;;;;9.65;1.83;;;8.80;99.90;;;-144.05;77.32;125687.94;5014222;28;20477;-81
2022/11/18 01:46:29;;;;;;;5.70;1.77;;;8.80;99.90;;;-144.05;77.60;125687.94;5014614;28;20038;-79
2022/11/18 01:49:14;;;;;;;6.40;2.35;;;8.80;99.90;;;-144.05;78.13;125687.94;4996652;28;20037;-79
2022/11/18 01:51:56;;;;;;;9.75;2.33;;;8.80;99.90;;;-144.05;77.98;125687.94;5012539;28;20038;-79
2022/11/18 01:54:41;;;;;;;4.00;1.75;;;8.70;99.90;;;-144.05;77.28;125687.94;5014177;28;20037;-78
2022/11/18 01:57:19;;;;;;;6.22;1.75;;;8.70;99.90;;;-144.05;77.26;125687.94;4996322;28;20030;-78
2022/11/18 01:59:53;;;;;;;5.32;1.98;;;8.70;99.90;;;-144.05;77.22;125687.94;5013914;28;20026;-82
2022/11/18 02:02:21;;;;;;;5.35;1.63;;;8.70;99.90;;;-144.05;77.61;125687.94;5012257;28;20473;-79
2022/11/18 02:04:53;;;;;;;5.75;2.00;;;8.60;99.90;;;-144.05;77.60;125687.94;5012225;28;20044;-79
2022/11/18 02:07:21;;;;;;;7.18;1.80;;;8.60;99.90;;;-144.05;77.41;125687.94;5014125;28;20497;-79
2022/11/18 02:09:47;;;;;;;8.48;1.80;;;8.50;99.90;;;-144.05;77.41;125687.94;5012353;28;20454;-77
2022/11/18 02:12:13;;;;;;;6.38;1.77;;;8.50;99.90;;;-144.05;77.56;125687.94;5013887;28;20029;-78
2022/11/18 02:14:45;;;;;;;7.47;2.30;;;8.50;99.90;;;-144.05;77.78;125687.94;4996310;28;20397;-79
2022/11/18 02:18:08;;;;;;;5.75;1.75;;;8.50;99.90;;;-144.05;78.06;125687.94;4996155;28;20025;-76
2022/11/18 02:20:46;;;;;;;6.30;1.80;;;8.50;99.90;;;-144.05;79.12;125687.94;4996732;28;20022;-78
2022/11/18 02:24:14;;;;;;;7.30;2.13;;;8.40;99.90;;;-144.05;79.62;125687.94;5014672;28;20128;-78
2022/11/18 02:27:42;;;;;;;5.95;1.48;;;8.50;99.90;;;-144.05;81.08;125687.94;5010102;28;20034;-78
2022/11/18 02:30:16;;;;;;;6.07;1.60;;;8.50;99.90;;;-144.05;80.42;125687.94;4974537;28;20109;-79
2022/11/18 02:33:11;;;;;;;6.85;2.08;;;8.60;99.90;;;-144.05;80.74;125687.94;4973813;28;20039;-77
2022/11/18 02:36:00;;;;;;;7.68;1.63;;;8.60;99.90;;;-144.05;81.13;125687.94;4993204;28;20044;-78
2022/11/18 02:38:44;;;;;;;4.40;2.17;;;8.60;99.90;;;-144.05;82.14;125687.94;5015279;28;20026;-78
2022/11/18 02:41:21;;;;;;;3.55;1.42;;;8.60;99.90;;;-144.05;82.59;125687.94;5015480;28;20033;-80
2022/11/18 02:44:14;;;;;;;3.97;1.40;;;8.70;99.90;;;-144.05;82.34;125687.94;5015158;28;20029;-81
2022/11/18 02:46:48;;;;;;;3.92;1.77;;;8.80;99.90;;;-144.05;81.59;125687.94;5014779;28;20470;-78
2022/11/18 02:49:33;;;;;;;5.47;1.73;;;8.70;99.90;;;-144.05;81.19;125687.94;5014201;28;20041;-77
2022/11/18 02:52:03;;;;;;;3.10;1.10;;;8.70;99.90;;;-144.05;80.09;125687.94;5014052;28;20120;-82
2022/11/18 02:54:33;;;;;;;3.03;1.08;;;8.70;99.90;;;-144.05;80.21;125687.94;5013776;28;20030;-80
2022/11/18 02:57:01;;;;;;;5.28;1.60;;;8.70;99.90;;;-144.05;79.92;125687.94;5013665;28;20045;-81
2022/11/18 02:59:28;;;;;;;4.03;1.30;;;8.70;99.90;;;-144.05;80.08;125687.94;5013354;28;20397;-80
2022/11/18 03:01:54;;;;;;;2.95;1.30;;;8.50;99.90;;;-144.05;79.61;125687.94;5012873;28;20026;-80
2022/11/18 03:04:24;;;;;;;3.65;1.63;;;8.50;99.90;;;-144.05;79.82;125687.94;5013989;28;20097;-79
2022/11/18 03:07:13;;;;;;;3.42;1.95;;;8.40;99.90;;;-144.05;80.22;125687.94;5013877;28;20025;-79
2022/11/18 03:09:48;;;;;;;4.47;1.58;;;8.40;99.90;;;-144.05;80.67;125687.94;5012686;28;20053;-81
2022/11/18 03:12:31;;;;;;;6.63;1.63;;;8.30;99.90;;;-144.05;80.49;125687.94;5012395;28;20034;-78
2022/11/18 03:15:23;;;;;;;5.13;1.30;;;8.30;99.90;;;-144.05;80.74;125687.94;4994969;28;20029;-79
2022/11/18 03:19:08;;;;;;;2.75;1.20;;;8.20;99.90;;;-144.05;80.99;125687.94;5013847;28;20149;-80
2022/11/18 03:21:51;;;;;;;3.88;1.38;;;8.20;99.90;;;-144.05;80.49;125687.94;4972023;28;20506;-80
2022/11/18 03:24:36;;;;;;;5.38;1.33;;;8.20;99.90;;;-144.05;81.04;125687.94;4955866;28;20038;-79
2022/11/18 03:27:25;;;;;;;4.47;2.40;;;8.10;99.90;;;-144.05;80.87;125687.94;4992231;28;20034;-78
2022/11/18 03:30:07;;;;;;;5.63;1.50;;;8.10;99.90;;;-144.05;81.33;125687.94;4996669;28;20287;-76
2022/11/18 03:32:44;;;;;;;3.10;1.70;;;8.20;99.90;;;-144.05;81.02;125687.94;5013480;28;20037;-80
2022/11/18 03:35:25;;;;;;;3.45;1.50;;;8.10;99.90;;;-144.05;81.31;125687.94;4995940;28;20495;-80
2022/11/18 03:38:06;;;;;;;7.20;1.65;;;8.10;99.90;;;-144.05;81.62;125687.94;5013992;28;20037;-78
2022/11/18 03:40:40;;;;;;;7.03;1.52;;;8.10;99.90;;;-144.05;81.57;125687.94;5013352;28;20026;-78
2022/11/18 03:43:16;;;;;;;6.85;1.60;;;8.10;99.90;;;-144.05;81.78;125687.94;5012733;28;20172;-79
2022/11/18 03:45:56;;;;;;;4.90;1.55;;;8.20;99.90;;;-144.05;82.04;125687.94;4996703;28;20026;-81
2022/11/18 03:48:33;;;;;;;4.55;1.60;;;8.20;99.90;;;-144.05;82.46;125687.94;5013431;28;20021;-79
2022/11/18 03:51:21;;;;;;;6.03;1.95;;;8.30;99.90;;;-144.05;82.63;125687.94;5013721;28;20099;-80
2022/11/18 03:54:02;;;;;;;8.07;2.10;;;8.40;99.90;;;-144.05;82.79;125687.94;5012541;28;20034;-79
2022/11/18 03:56:42;;;;;;;3.47;1.85;;;8.40;99.90;;;-144.05;83.14;125687.94;5012458;28;20026;-77
2022/11/18 03:59:20;;;;;;;8.07;2.20;;;8.40;99.90;;;-144.05;83.19;125687.94;5012586;28;20494;-78
2022/11/18 04:02:05;;;;;;;6.88;2.83;;;8.50;99.90;;;-144.05;82.86;125687.94;4994335;28;20567;-80
2022/11/18 04:04:32;;;;;;;4.55;1.90;;;8.50;99.90;;;-144.05;83.02;125687.94;5011113;28;20123;-78
2022/11/18 04:07:34;;;;;;;10.25;2.35;;;8.50;99.90;;;-144.05;82.79;125687.94;5012333;28;20021;-79
2022/11/18 04:10:33;;;;;;;5.35;2.22;;;8.60;99.90;;;-144.05;82.62;125687.94;5012034;28;20053;-80
2022/11/18 04:13:32;;;;;;;6.22;2.50;;;8.60;99.90;;;-144.05;82.54;125687.94;5012280;28;20029;-79
2022/11/18 04:15:58;;;;;;;6.07;2.58;;;8.60;99.90;;;-144.05;82.56;125687.94;5009314;28;20066;-78
2022/11/18 04:18:24;;;;;;;8.80;3.03;;;8.60;99.90;;;-144.05;82.54;125687.94;4996031;28;20453;-77
2022/11/18 04:20:50;;;;;;;10.05;3.33;;;8.70;99.90;;;-144.05;82.18;125687.94;5014634;28;20500;-78
2022/11/18 04:23:16;;;;;;;7.97;2.20;;;8.70;99.90;;;-144.05;82.59;125687.94;5020611;28;20029;-79
2022/11/18 04:25:42;;;;;;;6.32;2.25;;;8.70;99.90;;;-144.05;82.43;125687.94;5026770;28;20030;-77
2022/11/18 04:28:08;;;;;;;6.63;2.00;;;8.60;99.90;;;-144.05;82.62;125687.94;5027547;28;20061;-80
2022/11/18 04:30:34;;;;;;;7.85;2.20;;;8.70;99.90;;;-144.05;82.75;125687.94;5021804;28;20030;-79
2022/11/18 04:33:00;;;;;;;8.50;2.22;;;8.70;99.90;;;-144.05;83.01;125687.94;5020947;28;20117;-79
2022/11/18 04:35:26;;;;;;;18.83;2.65;;;8.70;99.90;;;-144.05;82.80;125687.94;5017539;28;20068;-80
2022/11/18 04:37:53;;;;;;;4.93;1.75;;;8.60;99.90;;;-144.05;82.23;125687.94;5017583;28;20041;-80
2022/11/18 04:40:19;;;;;;;9.55;2.83;;;8.60;99.90;;;-144.05;82.42;125687.94;5018509;28;20042;-79
2022/11/18 04:42:45;;;;;;;7.65;2.03;;;8.60;99.90;;;-144.05;82.91;125687.94;5017885;28;20083;-77
2022/11/18 04:45:11;;;;;;;9.40;2.58;;;8.60;99.90;;;-144.05;83.09;125687.94;5017663;28;20083;-77
2022/11/18 04:47:38;;;;;;;7.38;2.58;;;8.60;99.90;;;-144.05;83.31;125687.94;4999475;28;20030;-78
2022/11/18 04:50:04;;;;;;;7.85;2.58;;;8.60;99.90;;;-144.05;83.82;125687.94;5016843;28;20030;-80
2022/11/18 04:52:30;;;;;;;6.43;2.50;;;8.60;99.90;;;-144.05;83.21;125687.94;5017486;28;20034;-79
2022/11/18 04:54:56;;;;;;;7.45;2.92;;;8.60;99.90;;;-144.05;82.95;125687.94;5000322;28;20053;-80
2022/11/18 04:57:22;;;;;;;7.22;2.38;;;8.60;99.90;;;-144.05;82.72;125687.94;5016216;28;20057;-78
2022/11/18 04:59:48;;;;;;;10.57;2.70;;;8.60;99.90;;;-144.05;82.89;125687.94;5017184;28;20034;-80
2022/11/18 05:02:14;;;;;;;6.25;2.30;;;8.60;99.90;;;-144.05;82.67;125687.94;5017308;28;20030;-80
2022/11/18 05:04:40;;;;;;;10.27;3.20;;;8.60;99.90;;;-144.05;82.60;125687.94;5000025;28;20038;-78
2022/11/18 05:07:06;;;;;;;8.80;2.85;;;8.60;99.90;;;-144.05;82.87;125687.94;5018243;28;20030;-79
2022/11/18 05:09:33;;;;;;;6.55;2.22;;;8.60;99.90;;;-144.05;82.76;125687.94;5015970;28;20048;-79
2022/11/18 05:14:45;;;;;;;4.68;2.13;;;8.60;99.90;;;-144.05;82.39;125687.94;5017927;28;20063;-79
2022/11/18 05:17:11;;;;;;;6.70;2.67;;;8.60;99.90;;;-144.05;82.09;125687.94;5000263;28;20518;-79
2022/11/18 05:19:40;;;;;;;6.07;2.50;;;8.50;99.90;;;-144.05;82.38;125687.94;5017201;28;20034;-80
2022/11/18 05:22:06;;;;;;;6.85;2.60;;;8.50;99.90;;;-144.05;82.37;125687.94;5017256;28;20036;-78
2022/11/18 05:24:32;;;;;;;7.32;2.47;;;8.60;99.90;;;-144.05;82.61;125687.94;5000066;28;20053;-79
2022/11/18 05:26:58;;;;;;;7.65;2.67;;;8.50;99.90;;;-144.05;82.75;125687.94;5017099;28;20038;-77
2022/11/18 05:29:24;;;;;;;10.68;2.97;;;8.50;99.90;;;-144.05;82.97;125687.94;5018965;28;20048;-79
2022/11/18 05:31:50;;;;;;;10.57;2.72;;;8.50;99.90;;;-144.05;82.91;125687.94;5018969;28;20493;-81
2022/11/18 05:34:18;;;;;;;8.63;2.90;;;8.40;99.90;;;-144.05;83.10;125687.94;5016810;28;20029;-78
2022/11/18 05:36:44;;;;;;;5.20;2.20;;;8.40;99.90;;;-144.05;83.11;125687.94;5006144;28;20107;-79
2022/11/18 05:39:10;;;;;;;14.35;2.70;;;8.40;99.90;;;-144.05;83.10;125687.94;5023608;28;20121;-79
2022/11/18 05:44:20;;;;;;;11.43;2.90;;;8.40;99.90;;;-144.05;83.23;125687.94;5017636;28;20440;-78
2022/11/18 05:46:46;;;;;;;6.18;2.65;;;8.40;99.90;;;-144.05;83.17;125687.94;5017449;28;20026;-79
2022/11/18 05:49:12;;;;;;;5.65;2.20;;;8.40;99.90;;;-144.05;83.02;125687.94;5016676;28;20030;-80
2022/11/18 05:51:37;;;;;;;7.18;2.40;;;8.40;99.90;;;-144.05;83.16;125687.94;5002167;28;20030;-77
2022/11/18 05:54:13;;;;;;;8.88;2.53;;;8.40;99.90;;;-144.05;82.96;125687.94;5016344;28;20533;-77
2022/11/18 05:56:45;;;;;;;7.90;2.45;;;8.40;99.90;;;-144.05;83.46;125687.94;5017741;28;20034;-80
2022/11/18 05:59:13;;;;;;;8.40;2.67;;;8.50;99.90;;;-144.05;83.19;125687.94;5018436;28;20493;-83
2022/11/18 06:02:11;;;;;;;5.07;2.60;;;8.50;99.90;;;-144.05;83.33;125687.94;5017711;28;20405;-81
2022/11/18 06:04:52;;;;;;;5.40;2.67;;;8.50;99.90;;;-144.05;83.46;125687.94;5017067;28;20119;-78
2022/11/18 06:07:32;;;;;;;8.07;2.45;;;8.50;99.90;;;-144.05;83.61;125687.94;5017854;28;20445;-78
2022/11/18 06:10:01;;;;;;;8.30;2.55;;;8.50;99.90;;;-144.05;83.14;125687.94;5017765;28;20029;-80
2022/11/18 06:12:36;;;;;;;8.40;2.70;;;8.50;99.90;;;-144.05;83.07;125687.94;5017030;28;20030;-79
2022/11/18 06:15:34;;;;;;;8.82;3.10;;;8.50;99.90;;;-144.05;83.27;125687.94;5015971;28;20049;-78
2022/11/18 06:18:08;;;;;;;9.70;2.78;;;8.50;99.90;;;-144.05;83.24;125687.94;5012638;28;20046;-77
2022/11/18 06:20:39;;;;;;;6.95;2.70;;;8.60;99.90;;;-144.05;83.13;125687.94;5017479;28;20025;-78
2022/11/18 06:23:05;;;;;;;13.40;3.47;;;8.60;99.90;;;-144.05;83.13;125687.94;4999118;28;20029;-80
2022/11/18 06:25:32;;;;;;;9.48;3.97;;;8.60;99.90;;;-144.05;83.22;125687.94;5016449;28;20554;-79
2022/11/18 06:28:01;;;;;;;7.03;2.55;;;8.60;99.90;;;-144.05;83.19;125687.94;5017864;28;20032;-76
2022/11/18 06:30:27;;;;;;;8.00;2.70;;;8.60;99.90;;;-144.05;83.06;125687.94;5000209;28;20026;-79
2022/11/18 06:32:53;;;;;;;7.82;2.90;;;8.60;99.90;;;-144.05;83.38;125687.94;5018580;28;20440;-79
2022/11/18 06:35:18;;;;;;;8.10;2.90;;;8.50;99.90;;;-144.05;83.63;125687.94;5017583;28;20034;-79
2022/11/18 06:37:46;;;;;;;7.53;2.30;;;8.50;99.90;;;-144.05;83.30;125687.94;5016677;28;20117;-78
2022/11/18 06:40:12;;;;;;;6.78;2.42;;;8.50;99.90;;;-144.05;83.21;125687.94;5016252;28;20026;-80
2022/11/18 06:45:25;;;;;;;5.85;2.65;;;8.50;99.90;;;-144.05;83.02;125687.94;5021084;28;20041;-80
2022/11/18 06:47:54;;;;;;;7.40;2.78;;;8.60;99.90;;;-144.05;82.77;125687.94;5018847;28;20053;-79
2022/11/18 06:50:20;;;;;;;7.72;2.80;;;8.50;99.90;;;-144.05;82.92;125687.94;5018041;28;20030;-78
2022/11/18 06:52:46;;;;;;;10.25;2.67;;;8.50;99.90;;;-144.05;82.96;125687.94;5017351;28;20029;-78
2022/11/18 06:55:12;;;;;;;8.38;2.72;;;8.50;99.90;;;-144.05;82.85;125687.94;5016898;28;20033;-78
2022/11/18 06:57:38;;;;;;;6.38;2.60;;;8.50;99.90;;;-144.05;82.54;125687.94;5000552;28;20026;-79
2022/11/18 07:00:05;;;;;;;5.47;2.20;;;8.50;99.90;;;-144.05;82.79;125687.94;5018890;28;20042;-79
2022/11/18 07:02:31;;;;;;;6.80;2.70;;;8.50;99.90;;;-144.05;82.79;125687.94;5018151;28;20060;-78
2022/11/18 07:04:57;;;;;;;8.18;2.75;;;8.50;99.90;;;-144.05;82.75;125687.94;5018426;28;20037;-79
2022/11/18 07:07:23;;;;;;;6.57;2.70;;;8.60;99.90;;;-144.05;82.64;125687.94;5019262;28;20088;-80
2022/11/18 07:09:48;;;;;;;7.15;2.50;;;8.60;99.90;;;-144.05;82.48;125687.94;5018763;28;20034;-81
2022/11/18 07:12:14;;;;;;;6.97;2.88;;;8.60;99.90;;;-144.05;82.64;125687.94;5002730;28;20058;-81
2022/11/18 07:14:40;;;;;;;6.18;2.75;;;8.60;99.90;;;-144.05;82.44;125687.94;5018054;28;20029;-78
2022/11/18 07:17:06;;;;;;;7.90;3.38;;;8.60;99.90;;;-144.05;82.45;125687.94;5019006;28;20478;-79
2022/11/18 07:19:32;;;;;;;6.18;3.08;;;8.60;99.90;;;-144.05;82.59;125687.94;5017129;28;20420;-78
2022/11/18 07:21:58;;;;;;;9.45;3.00;;;8.60;99.90;;;-144.05;82.44;125687.94;5018580;28;20397;-79
2022/11/18 07:24:24;;;;;;;8.60;3.08;;;8.60;99.90;;;-144.05;82.41;125687.94;5017872;28;20030;-79
2022/11/18 07:26:53;;;;;;;6.90;3.63;;;8.60;99.90;;;-144.05;82.36;125687.94;5018045;28;20044;-78
2022/11/18 07:29:18;;;;;;;7.40;3.25;;;8.50;99.90;;;-144.05;82.38;125687.94;5000320;28;20026;-79
2022/11/18 07:31:44;;;;;;;5.50;3.10;;;8.50;99.90;;;-144.05;82.67;125687.94;5018974;28;20037;-77
2022/11/18 07:34:12;;;;;;;6.45;3.20;;;8.50;99.90;;;-144.05;82.55;125687.94;5017159;28;20080;-78
2022/11/18 07:36:38;;;;;;;8.65;3.67;;;8.50;99.90;;;-144.05;82.68;125687.94;5017029;28;20018;-80
2022/11/18 07:39:06;;;;;;;6.50;3.58;;;8.50;99.90;;;-144.05;82.84;125687.94;5018600;28;20026;-78
2022/11/18 07:41:32;;;;;;;7.20;3.60;;;8.50;99.90;;;-144.05;83.17;125687.94;5020201;28;20041;-80
2022/11/18 07:44:02;;;;;;;6.75;3.30;;;8.50;99.90;;;-144.05;83.34;125687.94;5017682;28;20034;-78
2022/11/18 07:46:34;;;;;;;6.72;3.17;;;8.50;99.90;;;-144.05;83.02;125687.94;5015303;28;20030;-78
2022/11/18 07:49:04;;;;;;;5.97;3.28;;;8.50;99.90;;;-144.05;83.20;125687.94;5018443;28;20022;-81
2022/11/18 07:51:35;;;;;;;6.43;2.53;;;8.60;99.90;;;-144.05;82.79;125687.94;5016403;28;20537;-80
2022/11/18 07:54:10;;;;;;;9.55;3.40;;;8.60;99.90;;;-144.05;83.07;125687.94;5017530;28;20037;-80
2022/11/18 07:56:38;;;;;;;5.13;3.42;;;8.60;99.90;;;-144.05;83.22;125687.94;5018122;28;20504;-78
2022/11/18 07:59:04;;;;;;;9.05;3.17;;;8.60;99.90;;;-144.05;83.02;125687.94;4997700;28;20061;-78
2022/11/18 08:01:30;;;;;;;7.90;3.42;;;8.70;99.90;;;-144.05;82.98;125687.94;5017153;28;20041;-78
2022/11/18 08:04:08;;;;;;;8.93;3.38;;;8.90;99.90;;;-144.05;82.66;125687.94;5019871;28;20037;-78
2022/11/18 08:06:35;;;;;;;8.35;3.88;;;9.00;99.90;;;-144.05;82.54;125687.94;5020016;28;20116;-78
2022/11/18 08:09:03;;;;;;;7.00;3.67;;;9.10;99.90;;;-144.05;82.26;125687.94;5020674;28;20390;-80
2022/11/18 08:11:29;;;;;;;6.72;4.28;;;9.20;99.90;;;-144.05;82.19;125687.94;5020335;28;20037;-78
2022/11/18 08:13:55;;;;;;;7.65;3.92;;;9.20;99.90;;;-144.05;81.88;125687.94;5021538;28;20044;-79
2022/11/18 08:16:24;;;;;;;10.60;3.67;;;9.20;99.90;;;-144.05;81.80;125687.94;5021348;28;20026;-79
2022/11/18 08:18:52;;;;;;;7.25;3.85;;;9.20;99.90;;;-144.05;82.12;125687.94;5021103;28;20037;-76
2022/11/18 08:21:21;;;;;;;6.05;4.03;;;9.20;99.90;;;-144.05;81.80;125687.94;5022054;28;20481;-79
2022/11/18 08:23:56;;;;;;;7.00;4.60;;;9.20;99.90;;;-144.05;81.71;125687.94;5004057;28;20034;-76
2022/11/18 08:26:23;;;;;;;11.55;4.90;;;9.30;99.90;;;-144.05;81.65;125687.94;5022223;28;20037;-77
2022/11/18 08:28:50;;;;;;;8.55;4.07;;;9.30;99.90;;;-144.05;81.43;125687.94;5023907;28;20025;-80
2022/11/18 08:31:21;;;;;;;10.10;4.70;;;9.30;99.90;;;-144.05;81.11;125687.94;5006525;28;20076;-80
2022/11/18 08:33:47;;;;;;;8.38;4.65;;;9.40;99.90;;;-144.05;80.67;125687.94;5021785;28;20026;-79
2022/11/18 08:36:22;;;;;;;12.73;4.80;;;9.40;99.90;;;-144.05;80.83;125687.94;5023022;28;20026;-80
2022/11/18 08:38:48;;;;;;;8.73;4.28;;;9.40;99.90;;;-144.05;80.78;125687.94;5024030;28;20148;-78
2022/11/18 08:41:24;;;;;;;9.38;4.45;;;9.50;99.90;;;-144.05;80.42;125687.94;5006927;28;20465;-78
2022/11/18 08:43:50;;;;;;;11.73;5.75;;;9.50;99.90;;;-144.05;80.14;125687.94;5023080;28;20041;-79
2022/11/18 08:46:16;;;;;;;10.45;4.43;;;9.50;99.90;;;-144.05;80.32;125687.94;5022589;28;20060;-79
2022/11/18 08:48:42;;;;;;;11.43;4.63;;;9.50;99.90;;;-144.05;80.18;125687.94;5022957;28;20061;-78
2022/11/18 08:51:12;;;;;;;11.55;5.05;;;9.60;99.90;;;-144.05;80.14;125687.94;5023543;28;20037;-80
2022/11/18 08:53:38;;;;;;;9.25;5.28;;;9.60;99.90;;;-144.05;79.97;125687.94;5025009;28;20034;-79
2022/11/18 08:56:04;;;;;;;10.45;5.00;;;9.70;99.90;;;-144.05;79.57;125687.94;5023996;28;20144;-80
2022/11/18 08:58:30;;;;;;;10.70;5.07;;;9.70;99.90;;;-144.05;79.36;125687.94;5025430;28;20528;-79
2022/11/18 09:00:56;;;;;;;7.70;4.38;;;9.80;99.90;;;-144.05;79.28;125687.94;5007906;28;20041;-80
2022/11/18 09:03:23;;;;;;;11.55;5.50;;;9.80;99.90;;;-144.05;79.02;125687.94;5025357;28;20034;-80
2022/11/18 09:05:49;;;;;;;7.53;4.43;;;9.80;99.90;;;-144.05;78.73;125687.94;5029907;28;20045;-78
2022/11/18 09:08:15;;;;;;;8.32;4.45;;;9.80;99.90;;;-144.05;78.70;125687.94;5030305;28;20048;-78
2022/11/18 09:10:42;;;;;;;7.75;5.53;;;9.90;99.90;;;-144.05;78.83;125687.94;5029577;28;20036;-80
2022/11/18 09:13:07;;;;;;;8.40;4.38;;;10.00;99.90;;;-144.05;78.11;125687.94;5028485;28;20026;-79
2022/11/18 09:15:34;;;;;;;10.70;4.78;;;10.10;99.90;;;-144.05;78.09;125687.94;5011912;28;20041;-80
2022/11/18 09:18:00;;;;;;;7.65;4.22;;;10.10;99.90;;;-144.05;78.08;125687.94;5021098;28;20033;-78
2022/11/18 09:20:26;;;;;;;7.85;4.55;;;10.10;99.90;;;-144.05;77.95;125687.94;5020580;28;20410;-78
2022/11/18 09:22:52;;;;;;;10.65;4.50;;;10.10;99.90;;;-144.05;78.02;125687.94;5019643;28;20030;-79
2022/11/18 09:25:17;;;;;;;11.20;4.22;;;10.20;99.90;;;-144.05;77.28;125687.94;5020183;28;20018;-79
2022/11/18 09:27:43;;;;;;;7.80;4.00;;;10.20;99.90;;;-144.05;77.28;125687.94;5020610;28;20034;-79
2022/11/18 09:30:10;;;;;;;12.15;4.57;;;10.30;99.90;;;-144.05;76.38;125687.94;5020931;28;20091;-77
2022/11/18 09:32:35;;;;;;;16.92;5.57;;;10.30;99.90;;;-144.05;76.34;125687.94;5019997;28;20068;-77
2022/11/18 09:35:01;;;;;;;7.30;3.85;;;10.30;99.90;;;-144.05;76.59;125687.94;5007874;28;20045;-78
2022/11/18 09:37:27;;;;;;;8.02;3.67;;;10.30;99.90;;;-144.05;76.56;125687.94;5022959;28;20018;-80
2022/11/18 09:39:53;;;;;;;8.63;4.13;;;10.30;99.90;;;-144.05;76.75;125687.94;5022877;28;20121;-81
2022/11/18 09:43:08;;;;;;;9.70;3.45;;;10.30;99.90;;;-144.05;76.86;125687.94;5021834;28;20190;-80
2022/11/18 09:45:45;;;;;;;6.88;3.30;;;10.30;99.90;;;-144.05;76.71;125687.94;5004487;28;20030;-77
2022/11/18 09:49:11;;;;;;;7.80;4.05;;;10.20;99.90;;;-144.05;76.79;125687.94;5022827;28;20058;-80
2022/11/18 09:51:11;;;;;;;7.65;3.92;;;10.20;99.90;;;-144.05;76.61;125687.94;5021592;28;20026;-80
2022/11/18 09:53:43;;;;;;;7.63;4.18;;;10.20;99.90;;;-144.05;76.77;125687.94;5043762;23;20412;-76
2022/11/18 09:56:15;;;;;;;10.02;3.95;;;10.20;99.90;;;-144.05;76.49;125687.94;5039077;28;20021;-77
2022/11/18 09:58:43;;;;;;;9.80;4.03;;;10.00;99.90;;;-144.05;76.60;125687.94;5041590;28;20048;-78
2022/11/18 10:01:19;;;;;;;7.82;3.78;;;10.00;99.90;;;-144.05;76.57;125687.94;5037266;28;20036;-75
2022/11/18 10:03:45;;;;;;;10.85;4.50;;;10.00;99.90;;;-144.05;76.50;125687.94;5038892;28;20034;-78
2022/11/18 10:06:25;;;;;;;12.70;4.82;;;10.00;99.90;;;-144.05;76.41;125687.94;5037776;28;20037;-78
2022/11/18 10:09:27;;;;;;;7.40;4.90;;;10.00;99.90;;;-144.05;76.08;125687.94;5037628;28;20029;-78
2022/11/18 10:12:19;;;;;;;10.48;3.85;;;10.00;99.90;;;-144.05;75.75;125687.94;5036036;28;20030;-79
2022/11/18 10:15:37;;;;;;;9.73;4.40;;;10.10;99.90;;;-144.05;76.03;125687.94;5037030;28;20473;-79
2022/11/18 10:18:35;;;;;;;15.00;4.20;;;10.10;99.90;;;-144.05;75.75;125687.94;5011589;28;20048;-77
2022/11/18 10:22:12;;;;;;;6.20;4.18;;;10.20;99.90;;;-144.05;76.16;125687.94;5036483;28;20064;-75
2022/11/18 10:24:59;;;;;;;9.00;4.13;;;10.20;99.90;;;-144.05;75.98;125687.94;5037852;28;20042;-78
2022/11/18 10:27:42;;;;;;;11.68;4.18;;;10.30;99.90;;;-144.05;74.95;125687.94;5053789;28;20041;-76
2022/11/18 10:30:22;;;;;;;7.93;5.00;;;10.30;99.90;;;-144.05;74.34;125687.94;5046540;28;20030;-77
2022/11/18 10:33:15;;;;;;;8.95;4.28;;;10.40;99.90;;;-144.05;74.58;125687.94;5042219;28;20032;-75
2022/11/18 10:35:41;;;;;;;11.32;5.07;;;10.50;99.90;;;-144.05;73.85;125687.94;5040069;28;20120;-78
2022/11/18 10:38:13;;;;;;;10.13;4.80;;;10.50;99.90;;;-144.05;73.57;125687.94;5038193;28;20025;-76
2022/11/18 10:40:51;;;;;;;8.27;3.95;;;10.60;99.90;;;-144.05;73.52;125687.94;5054104;28;20128;-77
2022/11/18 10:43:56;;;;;;;9.00;4.07;;;10.60;99.90;;;-144.05;73.11;125687.94;5038703;28;20038;-78
2022/11/18 10:46:38;;;;;;;7.82;4.40;;;10.70;99.90;;;-144.05;72.95;125687.94;5040178;28;20400;-77